RYR69KF EIDW-EIKY
Flight info
| Callsign | RYR69KF |
|---|---|
| Flight time | 0h 38m |
| Altitude | 8000 |
| Route | INKUR2Q INKUR L975 SHA DCT KER |
| Aircraft | B738/M-SDE2E3FGHIRWXY/LB1 |
Departure
| Time | 2026-04-24 21:27 |
|---|---|
| Airport | Dublin Airport (EIDW) |
Arrival
| Time | 2026-04-24 22:05 |
|---|---|
| Airport | Kerry Airport (EIKY) |
| Time | Latitude | Longitude | Altitude | Speed | Heading |
|---|---|---|---|---|---|
| 2026-04-24 21:05 | 53.43000 | -6.24814 | 247 ft | 0 kts | 7° |
| 2026-04-24 21:17 | 53.42988 | -6.24815 | 247 ft | 2 kts | 0° |
| 2026-04-24 21:17 | 53.42978 | -6.24817 | 247 ft | 2 kts | 7° |
| 2026-04-24 21:18 | 53.42958 | -6.24820 | 247 ft | 2 kts | 353° |
| 2026-04-24 21:18 | 53.42945 | -6.24809 | 247 ft | 2 kts | 308° |
| 2026-04-24 21:18 | 53.42940 | -6.24787 | 247 ft | 2 kts | 269° |
| 2026-04-24 21:18 | 53.42940 | -6.24761 | 247 ft | 2 kts | 277° |
| 2026-04-24 21:19 | 53.42938 | -6.24736 | 247 ft | 1 kts | 275° |
| 2026-04-24 21:19 | 53.42938 | -6.24732 | 247 ft | 0 kts | 275° |
| 2026-04-24 21:21 | 53.42938 | -6.24733 | 247 ft | 0 kts | 275° |
| 2026-04-24 21:21 | 53.42939 | -6.24763 | 247 ft | 0 kts | 275° |
| 2026-04-24 21:22 | 53.42941 | -6.24793 | 247 ft | 1 kts | 275° |
| 2026-04-24 21:22 | 53.42927 | -6.24861 | 247 ft | 7 kts | 223° |
| 2026-04-24 21:22 | 53.42888 | -6.24916 | 247 ft | 8 kts | 232° |
| 2026-04-24 21:22 | 53.42853 | -6.24989 | 247 ft | 17 kts | 230° |
| 2026-04-24 21:23 | 53.42793 | -6.25115 | 247 ft | 8 kts | 275° |
| 2026-04-24 21:23 | 53.42774 | -6.25290 | 247 ft | 26 kts | 227° |
| 2026-04-24 21:23 | 53.42630 | -6.25533 | 247 ft | 29 kts | 225° |
| 2026-04-24 21:23 | 53.42489 | -6.25772 | 246 ft | 26 kts | 226° |
| 2026-04-24 21:24 | 53.42357 | -6.25994 | 246 ft | 27 kts | 224° |
| 2026-04-24 21:24 | 53.42267 | -6.26237 | 246 ft | 24 kts | 266° |
| 2026-04-24 21:24 | 53.42279 | -6.26527 | 246 ft | 25 kts | 276° |
| 2026-04-24 21:24 | 53.42297 | -6.26837 | 246 ft | 27 kts | 275° |
| 2026-04-24 21:25 | 53.42315 | -6.27159 | 246 ft | 28 kts | 275° |
| 2026-04-24 21:25 | 53.42333 | -6.27494 | 246 ft | 29 kts | 275° |
| 2026-04-24 21:25 | 53.42352 | -6.27841 | 246 ft | 30 kts | 276° |
| 2026-04-24 21:25 | 53.42372 | -6.28201 | 246 ft | 31 kts | 276° |
| 2026-04-24 21:26 | 53.42314 | -6.28325 | 246 ft | 14 kts | 181° |
| 2026-04-24 21:26 | 53.42229 | -6.28232 | 246 ft | 15 kts | 139° |
| 2026-04-24 21:26 | 53.42180 | -6.28127 | 246 ft | 7 kts | 86° |
| 2026-04-24 21:26 | 53.42180 | -6.27902 | 246 ft | 53 kts | 94° |
| 2026-04-24 21:27 | 53.42121 | -6.26803 | 246 ft | 132 kts | 95° |
| 2026-04-24 21:27 | 53.42037 | -6.25117 | 821 ft | 148 kts | 96° |
| 2026-04-24 21:27 | 53.41923 | -6.23382 | 1590 ft | 160 kts | 99° |
| 2026-04-24 21:27 | 53.41845 | -6.22141 | 2189 ft | 164 kts | 99° |
| 2026-04-24 21:28 | 53.41705 | -6.19348 | 2642 ft | 207 kts | 97° |
| 2026-04-24 21:28 | 53.41587 | -6.16915 | 3367 ft | 208 kts | 97° |
| 2026-04-24 21:28 | 53.41509 | -6.14498 | 4065 ft | 217 kts | 94° |
| 2026-04-24 21:28 | 53.41463 | -6.11994 | 5063 ft | 218 kts | 96° |
| 2026-04-24 21:29 | 53.41293 | -6.09377 | 5602 ft | 239 kts | 100° |
| 2026-04-24 21:29 | 53.41048 | -6.06573 | 6316 ft | 254 kts | 99° |
| 2026-04-24 21:29 | 53.40860 | -6.03582 | 7144 ft | 264 kts | 92° |
| 2026-04-24 21:29 | 53.41267 | -6.00581 | 8082 ft | 274 kts | 65° |
| 2026-04-24 21:30 | 53.42412 | -5.98067 | 9054 ft | 281 kts | 47° |
| 2026-04-24 21:30 | 53.44002 | -5.96168 | 9989 ft | 291 kts | 25° |
| 2026-04-24 21:30 | 53.46006 | -5.95631 | 10860 ft | 304 kts | 358° |
| 2026-04-24 21:30 | 53.48060 | -5.96695 | 11539 ft | 324 kts | 330° |
| 2026-04-24 21:31 | 53.49748 | -5.99309 | 12196 ft | 343 kts | 304° |
| 2026-04-24 21:31 | 53.50715 | -6.03059 | 12836 ft | 359 kts | 284° |
| 2026-04-24 21:31 | 53.51172 | -6.07242 | 13446 ft | 376 kts | 276° |
| 2026-04-24 21:31 | 53.51437 | -6.11643 | 14069 ft | 393 kts | 274° |
| 2026-04-24 21:32 | 53.51663 | -6.16298 | 14864 ft | 404 kts | 274° |
| 2026-04-24 21:32 | 53.51904 | -6.20989 | 15784 ft | 411 kts | 274° |
| 2026-04-24 21:32 | 53.52177 | -6.25730 | 16168 ft | 414 kts | 275° |
| 2026-04-24 21:32 | 53.52491 | -6.30604 | 16228 ft | 414 kts | 275° |
| 2026-04-24 21:33 | 53.52825 | -6.35448 | 16223 ft | 413 kts | 276° |
| 2026-04-24 21:33 | 53.53050 | -6.38619 | 16232 ft | 413 kts | 276° |
| 2026-04-24 21:33 | 53.53504 | -6.44956 | 16225 ft | 413 kts | 276° |
| 2026-04-24 21:33 | 53.53846 | -6.49734 | 16222 ft | 414 kts | 276° |
| 2026-04-24 21:34 | 53.54184 | -6.54510 | 16222 ft | 413 kts | 276° |
| 2026-04-24 21:34 | 53.54526 | -6.59385 | 16218 ft | 413 kts | 276° |
| 2026-04-24 21:34 | 53.54857 | -6.64152 | 16213 ft | 413 kts | 275° |
| 2026-04-24 21:34 | 53.55191 | -6.68987 | 16216 ft | 414 kts | 275° |
| 2026-04-24 21:35 | 53.55521 | -6.73793 | 16217 ft | 414 kts | 275° |
| 2026-04-24 21:35 | 53.55844 | -6.78538 | 16209 ft | 413 kts | 275° |
| 2026-04-24 21:35 | 53.56166 | -6.83317 | 16216 ft | 414 kts | 275° |
| 2026-04-24 21:35 | 53.56491 | -6.88164 | 16210 ft | 414 kts | 275° |
| 2026-04-24 21:36 | 53.56809 | -6.92933 | 16206 ft | 414 kts | 275° |
| 2026-04-24 21:36 | 53.57129 | -6.97777 | 16203 ft | 415 kts | 274° |
| 2026-04-24 21:36 | 53.57444 | -7.02578 | 16198 ft | 415 kts | 274° |
| 2026-04-24 21:36 | 53.57756 | -7.07365 | 16200 ft | 414 kts | 274° |
| 2026-04-24 21:37 | 53.58068 | -7.12181 | 16204 ft | 414 kts | 274° |
| 2026-04-24 21:37 | 53.58378 | -7.16988 | 16199 ft | 414 kts | 274° |
| 2026-04-24 21:37 | 53.58683 | -7.21769 | 16197 ft | 415 kts | 274° |
| 2026-04-24 21:37 | 53.58992 | -7.26617 | 16202 ft | 414 kts | 274° |
| 2026-04-24 21:38 | 53.59264 | -7.31426 | 16198 ft | 414 kts | 271° |
| 2026-04-24 21:38 | 53.59188 | -7.36194 | 16196 ft | 410 kts | 260° |
| 2026-04-24 21:38 | 53.58366 | -7.40742 | 16197 ft | 405 kts | 242° |
| 2026-04-24 21:38 | 53.56806 | -7.44616 | 16201 ft | 399 kts | 226° |
| 2026-04-24 21:39 | 53.54906 | -7.48029 | 16194 ft | 398 kts | 223° |
| 2026-04-24 21:39 | 53.52976 | -7.51321 | 16198 ft | 397 kts | 223° |
| 2026-04-24 21:39 | 53.51027 | -7.54617 | 16200 ft | 397 kts | 223° |
| 2026-04-24 21:39 | 53.49111 | -7.57873 | 16208 ft | 397 kts | 223° |
| 2026-04-24 21:40 | 53.47187 | -7.61171 | 16200 ft | 396 kts | 223° |
| 2026-04-24 21:40 | 53.45253 | -7.64509 | 16205 ft | 397 kts | 223° |
| 2026-04-24 21:40 | 53.43332 | -7.67833 | 16206 ft | 397 kts | 223° |
| 2026-04-24 21:40 | 53.41420 | -7.71147 | 16200 ft | 396 kts | 223° |
| 2026-04-24 21:41 | 53.39532 | -7.74421 | 16203 ft | 396 kts | 223° |
| 2026-04-24 21:41 | 53.37613 | -7.77742 | 16199 ft | 397 kts | 223° |
| 2026-04-24 21:41 | 53.35690 | -7.81066 | 16199 ft | 396 kts | 223° |
| 2026-04-24 21:41 | 53.33774 | -7.84373 | 16200 ft | 396 kts | 223° |
| 2026-04-24 21:42 | 53.31862 | -7.87670 | 16201 ft | 396 kts | 223° |
| 2026-04-24 21:42 | 53.29950 | -7.90961 | 16196 ft | 396 kts | 223° |
| 2026-04-24 21:42 | 53.28035 | -7.94255 | 16194 ft | 395 kts | 223° |
| 2026-04-24 21:42 | 53.26135 | -7.97517 | 16197 ft | 395 kts | 223° |
| 2026-04-24 21:43 | 53.24221 | -8.00801 | 16193 ft | 394 kts | 223° |
| 2026-04-24 21:43 | 53.22303 | -8.04086 | 16188 ft | 394 kts | 223° |
| 2026-04-24 21:43 | 53.20390 | -8.07359 | 16190 ft | 394 kts | 223° |
| 2026-04-24 21:43 | 53.18498 | -8.10590 | 16190 ft | 394 kts | 223° |
| 2026-04-24 21:44 | 53.16577 | -8.13865 | 16187 ft | 394 kts | 223° |
| 2026-04-24 21:44 | 53.14681 | -8.17096 | 16186 ft | 392 kts | 223° |
| 2026-04-24 21:44 | 53.12771 | -8.20345 | 16187 ft | 392 kts | 223° |
| 2026-04-24 21:44 | 53.10852 | -8.23606 | 16185 ft | 392 kts | 223° |
| 2026-04-24 21:45 | 53.08976 | -8.26788 | 16182 ft | 392 kts | 223° |
| 2026-04-24 21:45 | 53.07061 | -8.30034 | 16181 ft | 392 kts | 223° |
| 2026-04-24 21:45 | 53.05138 | -8.33286 | 16173 ft | 392 kts | 223° |
| 2026-04-24 21:45 | 53.03256 | -8.36468 | 16175 ft | 391 kts | 223° |
| 2026-04-24 21:46 | 53.01332 | -8.39714 | 16169 ft | 391 kts | 223° |
| 2026-04-24 21:46 | 52.99453 | -8.42881 | 16169 ft | 391 kts | 223° |
| 2026-04-24 21:46 | 52.97538 | -8.46102 | 16169 ft | 390 kts | 223° |
| 2026-04-24 21:46 | 52.95617 | -8.49330 | 16171 ft | 390 kts | 223° |
| 2026-04-24 21:47 | 52.93712 | -8.52527 | 16173 ft | 391 kts | 223° |
| 2026-04-24 21:47 | 52.92456 | -8.54632 | 16174 ft | 390 kts | 223° |
| 2026-04-24 21:47 | 52.89921 | -8.58879 | 16166 ft | 389 kts | 222° |
| 2026-04-24 21:47 | 52.88004 | -8.62084 | 16183 ft | 390 kts | 223° |
| 2026-04-24 21:48 | 52.86102 | -8.65260 | 16165 ft | 389 kts | 221° |
| 2026-04-24 21:48 | 52.84215 | -8.68412 | 16174 ft | 389 kts | 221° |
| 2026-04-24 21:48 | 52.82315 | -8.71580 | 16163 ft | 388 kts | 221° |
| 2026-04-24 21:48 | 52.80425 | -8.74723 | 16136 ft | 389 kts | 221° |
| 2026-04-24 21:49 | 52.78526 | -8.77877 | 16173 ft | 388 kts | 221° |
| 2026-04-24 21:49 | 52.76630 | -8.81025 | 16187 ft | 389 kts | 221° |
| 2026-04-24 21:49 | 52.74722 | -8.84190 | 16163 ft | 386 kts | 221° |
| 2026-04-24 21:49 | 52.72827 | -8.87288 | 16175 ft | 387 kts | 220° |
| 2026-04-24 21:50 | 52.70810 | -8.90251 | 16168 ft | 385 kts | 216° |
| 2026-04-24 21:50 | 52.68709 | -8.92941 | 16174 ft | 384 kts | 213° |
| 2026-04-24 21:50 | 52.66557 | -8.95499 | 16170 ft | 383 kts | 212° |
| 2026-04-24 21:50 | 52.64327 | -8.98079 | 16174 ft | 397 kts | 212° |
| 2026-04-24 21:51 | 52.62084 | -9.00676 | 16193 ft | 398 kts | 212° |
| 2026-04-24 21:51 | 52.59796 | -9.03352 | 16163 ft | 400 kts | 212° |
| 2026-04-24 21:51 | 52.57568 | -9.05984 | 16173 ft | 401 kts | 212° |
| 2026-04-24 21:51 | 52.55316 | -9.08662 | 16150 ft | 395 kts | 213° |
| 2026-04-24 21:52 | 52.53161 | -9.11238 | 16087 ft | 378 kts | 212° |
| 2026-04-24 21:52 | 52.51071 | -9.13744 | 15706 ft | 364 kts | 213° |
| 2026-04-24 21:52 | 52.49054 | -9.16167 | 15190 ft | 353 kts | 213° |
| 2026-04-24 21:52 | 52.47120 | -9.18483 | 14507 ft | 349 kts | 213° |
| 2026-04-24 21:53 | 52.45170 | -9.20814 | 13758 ft | 346 kts | 212° |
| 2026-04-24 21:53 | 52.43246 | -9.23106 | 12987 ft | 344 kts | 213° |
| 2026-04-24 21:53 | 52.41323 | -9.25392 | 12222 ft | 343 kts | 213° |
| 2026-04-24 21:53 | 52.39401 | -9.27666 | 11489 ft | 340 kts | 213° |
| 2026-04-24 21:54 | 52.37521 | -9.29888 | 10788 ft | 337 kts | 213° |
| 2026-04-24 21:54 | 52.35621 | -9.32129 | 10082 ft | 333 kts | 213° |
| 2026-04-24 21:54 | 52.33776 | -9.34303 | 9437 ft | 329 kts | 213° |
| 2026-04-24 21:54 | 52.31939 | -9.36459 | 8778 ft | 325 kts | 213° |
| 2026-04-24 21:55 | 52.30104 | -9.38610 | 8059 ft | 324 kts | 213° |
| 2026-04-24 21:55 | 52.28303 | -9.40731 | 7457 ft | 319 kts | 213° |
| 2026-04-24 21:55 | 52.26519 | -9.42822 | 6812 ft | 315 kts | 213° |
| 2026-04-24 21:55 | 52.24764 | -9.44871 | 6168 ft | 312 kts | 212° |
| 2026-04-24 21:56 | 52.23005 | -9.46919 | 5493 ft | 310 kts | 212° |
| 2026-04-24 21:56 | 52.21263 | -9.48954 | 4839 ft | 308 kts | 212° |
| 2026-04-24 21:56 | 52.19561 | -9.50987 | 4165 ft | 307 kts | 215° |
| 2026-04-24 21:56 | 52.18037 | -9.53440 | 3489 ft | 311 kts | 229° |
| 2026-04-24 21:57 | 52.17046 | -9.56539 | 2871 ft | 314 kts | 245° |
| 2026-04-24 21:57 | 52.16372 | -9.59917 | 2224 ft | 314 kts | 251° |
| 2026-04-24 21:57 | 52.15792 | -9.63264 | 1985 ft | 311 kts | 252° |
| 2026-04-24 21:57 | 52.15180 | -9.66644 | 1988 ft | 300 kts | 249° |
| 2026-04-24 21:58 | 52.14403 | -9.69594 | 1990 ft | 282 kts | 234° |
| 2026-04-24 21:58 | 52.13050 | -9.71945 | 1995 ft | 287 kts | 214° |
| 2026-04-24 21:58 | 52.11339 | -9.73690 | 1977 ft | 295 kts | 206° |
| 2026-04-24 21:58 | 52.09558 | -9.75240 | 1979 ft | 279 kts | 203° |
| 2026-04-24 21:59 | 52.07943 | -9.76608 | 1974 ft | 250 kts | 209° |
| 2026-04-24 21:59 | 52.06657 | -9.78268 | 1988 ft | 225 kts | 222° |
| 2026-04-24 21:59 | 52.05936 | -9.80386 | 1987 ft | 214 kts | 258° |
| 2026-04-24 21:59 | 52.06211 | -9.82705 | 1981 ft | 211 kts | 302° |
| 2026-04-24 22:00 | 52.07358 | -9.84065 | 1983 ft | 208 kts | 349° |
| 2026-04-24 22:00 | 52.08686 | -9.83841 | 1988 ft | 183 kts | 31° |
| 2026-04-24 22:00 | 52.09737 | -9.82800 | 1983 ft | 177 kts | 38° |
| 2026-04-24 22:00 | 52.10702 | -9.81590 | 1983 ft | 173 kts | 48° |
| 2026-04-24 22:01 | 52.11517 | -9.80169 | 1992 ft | 170 kts | 56° |
| 2026-04-24 22:01 | 52.12208 | -9.78628 | 1986 ft | 169 kts | 63° |
| 2026-04-24 22:01 | 52.12776 | -9.76961 | 1983 ft | 167 kts | 68° |
| 2026-04-24 22:01 | 52.13247 | -9.75231 | 1982 ft | 167 kts | 72° |
| 2026-04-24 22:02 | 52.13668 | -9.73484 | 1983 ft | 163 kts | 74° |
| 2026-04-24 22:02 | 52.14051 | -9.71794 | 1987 ft | 157 kts | 76° |
| 2026-04-24 22:02 | 52.14418 | -9.70110 | 1990 ft | 158 kts | 76° |
| 2026-04-24 22:02 | 52.14776 | -9.68434 | 1990 ft | 157 kts | 76° |
| 2026-04-24 22:03 | 52.15131 | -9.66748 | 1900 ft | 158 kts | 77° |
| 2026-04-24 22:03 | 52.15472 | -9.65118 | 1672 ft | 146 kts | 76° |
| 2026-04-24 22:03 | 52.15790 | -9.63603 | 1443 ft | 135 kts | 76° |
| 2026-04-24 22:03 | 52.16088 | -9.62152 | 1262 ft | 136 kts | 75° |
| 2026-04-24 22:04 | 52.16391 | -9.60712 | 1043 ft | 134 kts | 74° |
| 2026-04-24 22:04 | 52.16681 | -9.59285 | 878 ft | 133 kts | 74° |
| 2026-04-24 22:04 | 52.16957 | -9.57846 | 670 ft | 132 kts | 73° |
| 2026-04-24 22:04 | 52.17247 | -9.56444 | 471 ft | 132 kts | 71° |
| 2026-04-24 22:05 | 52.17536 | -9.55026 | 290 ft | 133 kts | 71° |
| 2026-04-24 22:05 | 52.17831 | -9.53604 | 106 ft | 133 kts | 71° |
| 2026-04-24 22:05 | 52.18097 | -9.52340 | 98 ft | 82 kts | 70° |
| 2026-04-24 22:05 | 52.18183 | -9.51919 | 108 ft | 22 kts | 71° |
| 2026-04-24 22:06 | 52.18221 | -9.51777 | 111 ft | 4 kts | 56° |
| 2026-04-24 22:06 | 52.18233 | -9.51739 | 112 ft | 1 kts | 131° |
| 2026-04-24 22:06 | 52.18215 | -9.51793 | 111 ft | 15 kts | 249° |
| 2026-04-24 22:06 | 52.18161 | -9.52035 | 104 ft | 26 kts | 251° |
| 2026-04-24 22:07 | 52.18097 | -9.52342 | 98 ft | 30 kts | 250° |
| 2026-04-24 22:07 | 52.18023 | -9.52692 | 91 ft | 34 kts | 250° |
| 2026-04-24 22:07 | 52.17942 | -9.53073 | 86 ft | 37 kts | 250° |
| 2026-04-24 22:07 | 52.17869 | -9.53419 | 83 ft | 28 kts | 252° |
| 2026-04-24 22:08 | 52.17915 | -9.53580 | 81 ft | 17 kts | 339° |
| 2026-04-24 22:08 | 52.18031 | -9.53655 | 80 ft | 15 kts | 329° |
| 2026-04-24 22:08 | 52.18082 | -9.53678 | 79 ft | 0 kts | 7° |
| 2026-04-24 22:08 | 52.18085 | -9.53652 | 79 ft | 2 kts | 147° |
| 2026-04-24 22:09 | 52.18082 | -9.53653 | 79 ft | 0 kts | 190° |